createdAt,value
2022-09-07T00:00:31.125Z,8.200000
2022-09-07T00:05:33.819Z,9.000000
2022-09-07T00:10:16.179Z,8.266667
2022-09-07T00:15:18.584Z,8.000000
2022-09-07T00:20:22.553Z,8.714286
2022-09-07T00:25:25.316Z,9.000000
2022-09-07T00:30:28.248Z,9.000000
2022-09-07T00:35:31.044Z,9.000000
2022-09-07T00:40:33.651Z,9.000000
2022-09-07T00:45:15.962Z,9.000000
2022-09-07T00:50:19.522Z,8.266667
2022-09-07T00:55:21.980Z,8.000000
2022-09-07T01:00:24.680Z,8.785714
2022-09-07T01:05:28.432Z,9.000000
2022-09-07T01:10:31.157Z,8.266667
2022-09-07T01:15:34.474Z,8.000000
2022-09-07T01:20:17.246Z,6.533333
2022-09-07T01:25:19.841Z,6.000000
2022-09-07T01:30:22.359Z,8.142857
2022-09-07T01:35:25.601Z,9.000000
2022-09-07T01:40:28.064Z,9.000000
2022-09-07T01:45:31.193Z,9.000000
2022-09-07T01:50:34.886Z,9.000000
2022-09-07T01:55:16.536Z,9.000000
2022-09-07T02:00:20.074Z,6.066667
2022-09-07T02:05:23.503Z,5.000000
2022-09-07T02:10:25.988Z,12.333333
2022-09-07T02:15:28.667Z,15.000000
2022-09-07T02:20:31.657Z,9.866667
2022-09-07T02:25:33.987Z,8.000000
2022-09-07T02:30:16.336Z,7.266667
2022-09-07T02:35:18.752Z,7.000000
2022-09-07T02:40:21.198Z,9.933333
2022-09-07T02:45:23.879Z,11.000000
2022-09-07T02:50:26.793Z,11.000000
2022-09-07T02:55:29.468Z,11.000000
2022-09-07T03:00:31.600Z,10.266667
2022-09-07T03:05:35.285Z,10.000000
2022-09-07T03:10:18.608Z,17.333333
2022-09-07T03:15:22.894Z,20.000000
2022-09-07T03:20:25.653Z,14.133333
2022-09-07T03:25:28.155Z,12.000000
2022-09-07T03:30:30.693Z,14.933333
2022-09-07T03:35:33.109Z,16.000000
2022-09-07T03:40:36.340Z,17.466667
2022-09-07T03:45:18.671Z,18.000000
2022-09-07T03:50:21.501Z,17.266667
2022-09-07T03:55:24.366Z,17.000000
2022-09-07T04:00:27.572Z,14.066667
2022-09-07T04:05:30.099Z,13.000000
2022-09-07T04:10:32.653Z,13.733333
2022-09-07T04:15:35.332Z,14.000000
2022-09-07T04:20:18.457Z,19.133333
2022-09-07T04:25:22.162Z,21.000000
2022-09-07T04:30:26.326Z,24.142857
2022-09-07T04:35:29.856Z,25.000000
2022-09-07T04:40:33.513Z,16.200000
2022-09-07T04:45:36.253Z,13.000000
2022-09-07T04:50:19.289Z,17.400000
2022-09-07T04:55:23.158Z,19.000000
2022-09-07T05:00:27.323Z,18.266667
2022-09-07T05:05:30.734Z,18.000000
2022-09-07T05:10:33.954Z,16.533333
2022-09-07T05:15:16.546Z,16.000000
2022-09-07T05:20:20.380Z,18.200000
2022-09-07T05:25:22.274Z,19.000000
2022-09-07T05:31:21.815Z,19.785714
2022-09-07T05:35:27.399Z,20.000000
2022-09-07T05:40:29.999Z,19.266667
2022-09-07T05:45:32.330Z,19.000000
2022-09-07T05:50:35.105Z,18.266667
2022-09-07T05:55:29.378Z,18.000000
2022-09-07T06:00:20.340Z,20.200000
2022-09-07T06:05:23.101Z,21.000000
2022-09-07T08:11:35.884Z,12.666667
2022-09-07T08:15:27.379Z,10.000000
2022-09-07T08:20:29.817Z,16.600000
2022-09-07T08:25:32.371Z,19.000000
2022-09-07T08:30:35.108Z,14.600000
2022-09-07T08:35:17.267Z,13.000000
2022-09-07T08:40:19.909Z,14.466667
2022-09-07T08:45:22.323Z,15.000000
2022-09-07T08:50:25.166Z,12.800000
2022-09-07T08:55:27.596Z,12.000000
2022-09-07T09:00:30.083Z,15.666667
2022-09-07T09:05:33.075Z,17.000000
2022-09-07T09:10:35.268Z,14.800000
2022-09-07T09:15:17.684Z,14.000000
2022-09-07T09:20:20.442Z,16.933333
2022-09-07T09:25:22.961Z,18.000000
2022-09-07T09:30:25.748Z,26.066667
2022-09-07T09:35:28.764Z,29.000000
2022-09-07T09:40:31.540Z,25.333333
2022-09-07T09:46:12.260Z,24.000000
2022-09-07T09:52:29.329Z,18.866667
2022-09-07T09:55:33.731Z,17.000000
2022-09-07T10:00:29.287Z,12.600000
2022-09-07T10:05:25.203Z,11.000000
2022-09-07T10:10:27.529Z,16.133333
2022-09-07T10:15:30.879Z,18.000000
2022-09-07T10:20:33.479Z,19.466667
2022-09-07T10:25:35.862Z,20.000000
2022-09-07T10:30:18.166Z,20.000000
2022-09-07T10:35:20.906Z,20.000000
2022-09-07T10:40:23.363Z,16.428571
2022-09-07T10:45:25.879Z,15.000000
2022-09-07T10:50:28.478Z,13.533333
2022-09-07T10:55:31.008Z,13.000000
2022-09-07T11:00:33.308Z,18.133333
2022-09-07T11:05:15.948Z,20.000000
2022-09-07T11:10:18.525Z,17.066667
2022-09-07T11:15:20.962Z,16.000000
2022-09-07T11:20:23.704Z,16.000000
2022-09-07T11:25:29.974Z,16.000000
2022-09-07T11:30:28.894Z,17.466667
2022-09-07T11:35:31.406Z,18.000000
2022-09-07T11:40:33.945Z,19.466667
2022-09-07T11:45:16.424Z,20.000000
2022-09-07T11:50:19.146Z,20.000000
2022-09-07T11:55:21.731Z,20.000000
2022-09-07T12:00:24.298Z,23.142857
2022-09-07T12:05:26.690Z,24.000000
2022-09-07T12:10:29.461Z,18.866667
2022-09-07T12:15:32.129Z,17.000000
2022-09-07T12:20:34.756Z,14.066667
2022-09-07T12:25:16.870Z,13.000000
2022-09-07T12:30:19.802Z,21.066667
2022-09-07T12:35:22.116Z,24.000000
2022-09-07T12:40:24.705Z,20.857143
2022-09-07T12:45:27.595Z,20.000000
2022-09-07T12:50:29.970Z,20.000000
2022-09-07T12:55:33.011Z,20.000000
2022-09-07T13:00:35.141Z,17.066667
2022-09-07T13:05:17.454Z,16.000000
2022-09-07T13:10:20.219Z,20.400000
2022-09-07T13:15:24.299Z,22.000000
2022-09-07T13:20:25.355Z,22.000000
2022-09-07T13:25:28.021Z,22.000000
2022-09-07T13:30:30.730Z,24.200000
2022-09-07T13:35:33.138Z,25.000000
2022-09-07T13:40:35.378Z,29.400000
2022-09-07T13:45:18.001Z,31.000000
2022-09-07T13:50:20.825Z,31.733333
2022-09-07T13:55:25.836Z,32.000000
2022-09-07T14:00:27.696Z,26.133333
2022-09-07T14:05:41.523Z,24.000000
2022-09-07T14:10:32.231Z,21.066667
2022-09-07T14:15:35.252Z,20.000000
2022-09-07T14:20:17.666Z,22.200000
2022-09-07T14:25:20.677Z,23.000000
2022-09-07T14:30:23.203Z,24.428571
2022-09-07T14:35:25.958Z,25.000000
2022-09-07T14:40:28.113Z,25.000000
2022-09-07T14:45:31.082Z,25.000000
2022-09-07T14:50:33.647Z,25.733333
2022-09-07T14:55:36.248Z,26.000000
2022-09-07T15:00:18.868Z,24.533333
2022-09-07T15:05:21.859Z,24.000000
2022-09-07T15:10:24.426Z,24.785714
2022-09-07T15:15:27.333Z,25.000000
2022-09-07T15:20:30.365Z,23.533333
2022-09-07T15:25:34.517Z,23.000000
2022-09-07T15:30:20.943Z,23.000000
2022-09-07T15:35:23.699Z,23.000000
2022-09-07T15:40:26.814Z,23.000000
2022-09-07T15:45:29.206Z,23.000000
2022-09-07T15:50:31.829Z,17.866667
2022-09-07T15:55:37.223Z,16.000000
2022-09-07T16:00:17.232Z,21.133333
2022-09-07T16:05:20.213Z,23.000000
2022-09-07T16:10:22.440Z,22.285714
2022-09-07T16:15:27.038Z,22.000000
2022-09-07T16:20:32.098Z,25.666667
2022-09-07T16:25:30.273Z,27.000000
2022-09-07T16:30:32.691Z,20.400000
2022-09-07T16:35:35.347Z,18.000000
2022-09-07T16:40:18.387Z,20.933333
2022-09-07T16:46:03.951Z,22.000000
2022-09-07T16:50:23.557Z,22.000000
2022-09-07T16:55:25.591Z,22.000000
2022-09-07T17:00:32.342Z,20.533333
2022-09-07T17:05:30.803Z,20.000000
2022-09-07T17:10:33.391Z,21.466667
2022-09-07T17:15:35.938Z,22.000000
2022-09-07T17:20:19.313Z,20.533333
2022-09-07T17:25:20.915Z,20.000000
2022-09-07T17:30:24.743Z,21.428571
2022-09-07T17:35:26.034Z,22.000000
2022-09-07T17:40:28.628Z,20.533333
2022-09-07T17:45:31.401Z,20.000000
2022-09-07T17:50:33.888Z,19.266667
2022-09-07T17:55:16.062Z,19.000000
2022-09-07T18:00:18.804Z,19.000000
2022-09-07T18:05:21.342Z,19.000000
2022-09-07T18:10:24.182Z,19.000000
2022-09-07T18:15:26.314Z,19.000000
2022-09-07T18:20:28.987Z,21.933333
2022-09-07T18:25:31.504Z,23.000000
2022-09-07T18:30:34.045Z,18.600000
2022-09-07T18:35:16.240Z,17.000000
2022-09-07T18:40:21.472Z,16.266667
2022-09-07T18:45:28.829Z,16.000000
2022-09-07T18:50:24.255Z,16.785714
2022-09-07T18:55:26.718Z,17.000000
2022-09-07T19:00:29.518Z,18.466667
2022-09-07T19:06:07.790Z,19.000000
2022-09-07T19:10:34.361Z,16.066667
2022-09-07T19:15:16.755Z,15.000000
2022-09-07T19:20:19.319Z,20.133333
2022-09-07T19:25:22.267Z,22.000000
2022-09-07T19:30:24.758Z,14.142857
2022-09-07T19:35:27.222Z,12.000000
2022-09-07T19:40:29.810Z,12.733333
2022-09-07T19:45:32.269Z,13.000000
2022-09-07T19:50:35.115Z,13.000000
2022-09-07T19:55:17.418Z,13.000000
2022-09-07T20:00:19.919Z,13.000000
2022-09-07T20:05:22.815Z,13.000000
2022-09-07T20:10:25.404Z,12.266667
2022-09-07T20:15:28.458Z,12.000000
2022-09-07T20:20:31.507Z,11.266667
2022-09-07T20:25:34.190Z,11.000000
2022-09-07T20:30:17.028Z,11.733333
2022-09-07T20:35:19.850Z,12.000000
2022-09-07T20:40:22.601Z,12.714286
2022-09-07T20:45:29.756Z,13.000000
2022-09-07T20:50:28.280Z,10.800000
2022-09-07T20:55:31.395Z,10.000000
2022-09-07T21:00:34.221Z,10.000000
2022-09-07T21:05:16.714Z,10.000000
2022-09-07T21:10:19.375Z,8.533333
2022-09-07T21:15:22.021Z,8.000000
2022-09-07T21:20:24.796Z,10.357143
2022-09-07T21:25:27.888Z,11.000000
2022-09-07T21:30:31.185Z,9.533333
2022-09-07T21:35:34.196Z,9.000000
2022-09-07T21:40:16.890Z,9.000000
2022-09-07T21:45:19.592Z,9.000000
2022-09-07T21:50:22.155Z,9.000000
2022-09-07T21:55:24.966Z,9.000000
2022-09-07T22:00:28.426Z,9.000000
2022-09-07T22:05:30.584Z,9.000000
2022-09-07T22:10:33.986Z,10.466667
2022-09-07T22:15:17.113Z,11.000000
2022-09-07T22:20:19.711Z,9.533333
2022-09-07T22:25:22.087Z,9.000000
2022-09-07T22:30:24.760Z,8.214286
2022-09-07T22:35:27.659Z,8.000000
2022-09-07T22:40:30.894Z,8.733333
2022-09-07T22:45:33.727Z,9.000000
2022-09-07T22:50:16.676Z,8.266667
2022-09-07T22:55:19.535Z,8.000000
2022-09-07T23:00:22.145Z,8.733333
2022-09-07T23:05:25.035Z,9.000000
2022-09-07T23:10:27.555Z,8.266667
2022-09-07T23:15:30.972Z,8.000000
2022-09-07T23:20:33.750Z,8.000000
2022-09-07T23:25:16.751Z,8.000000
2022-09-07T23:30:19.672Z,8.000000
2022-09-07T23:35:22.188Z,8.000000
2022-09-07T23:40:24.740Z,8.000000
2022-09-07T23:45:27.278Z,8.000000
2022-09-07T23:50:30.076Z,8.000000
2022-09-07T23:55:32.488Z,8.000000
